createdAt,value
2023-02-23T00:01:54.092Z,12.20
2023-02-23T00:04:23.441Z,11.27
2023-02-23T00:06:52.129Z,11.93
2023-02-23T00:09:24.213Z,12.60
2023-02-23T00:11:53.112Z,11.40
2023-02-23T00:14:20.922Z,11.87
2023-02-23T00:16:48.708Z,12.50
2023-02-23T00:19:17.886Z,11.60
2023-02-23T00:21:45.898Z,11.87
2023-02-23T00:24:16.565Z,12.60
2023-02-23T00:26:45.255Z,13.17
2023-02-23T00:29:17.089Z,12.73
2023-02-23T00:31:45.655Z,13.55
2023-02-23T00:34:15.820Z,11.50
2023-02-23T00:36:44.889Z,12.00
2023-02-23T00:39:18.477Z,12.07
2023-02-23T00:41:47.320Z,11.23
2023-02-23T00:44:16.200Z,12.83
2023-02-23T00:46:45.214Z,11.73
2023-02-23T00:49:14.373Z,12.20
2023-02-23T00:51:42.131Z,10.97
2023-02-23T00:54:13.392Z,11.87
2023-02-23T00:56:41.704Z,12.60
2023-02-23T00:59:09.463Z,10.33
2023-02-23T01:01:38.515Z,11.63
2023-02-23T01:04:07.169Z,12.50
2023-02-23T01:06:37.470Z,12.00
2023-02-23T01:09:09.632Z,11.40
2023-02-23T01:11:38.804Z,12.20
2023-02-23T01:14:06.604Z,10.70
2023-02-23T01:16:36.927Z,13.90
2023-02-23T01:19:06.316Z,13.20
2023-02-23T01:21:36.792Z,12.77
2023-02-23T01:24:04.784Z,12.60
2023-02-23T01:26:34.944Z,13.03
2023-02-23T01:29:08.666Z,13.80
2023-02-23T01:31:37.469Z,12.33
2023-02-23T01:34:06.829Z,11.70
2023-02-23T01:36:37.082Z,12.63
2023-02-23T01:39:07.451Z,15.00
2023-02-23T01:41:36.655Z,12.83
2023-02-23T01:44:07.643Z,12.50
2023-02-23T01:46:39.010Z,12.10
2023-02-23T01:49:09.851Z,12.87
2023-02-23T01:51:42.893Z,12.40
2023-02-23T01:54:15.883Z,13.17
2023-02-23T01:56:47.379Z,15.20
2023-02-23T01:59:18.626Z,13.00
2023-02-23T02:01:48.160Z,14.60
2023-02-23T02:04:16.731Z,14.13
2023-02-23T02:06:46.573Z,14.90
2023-02-23T02:09:18.235Z,13.50
2023-02-23T02:11:48.728Z,13.13
2023-02-23T02:14:21.095Z,14.27
2023-02-23T02:17:07.895Z,12.57
2023-02-23T02:20:13.898Z,13.13
2023-02-23T02:23:02.949Z,13.50
2023-02-23T02:25:53.411Z,13.80
2023-02-23T02:28:59.668Z,15.10
2023-02-23T02:32:11.049Z,13.53
2023-02-23T02:35:08.366Z,12.27
2023-02-23T02:38:01.741Z,13.37
2023-02-23T02:40:37.766Z,15.03
2023-02-23T02:43:11.481Z,15.67
2023-02-23T02:45:45.242Z,14.77
2023-02-23T02:48:21.411Z,15.47
2023-02-23T02:50:55.420Z,15.07
2023-02-23T02:53:31.887Z,16.70
2023-02-23T02:56:05.453Z,14.83
2023-02-23T02:58:33.861Z,16.27
2023-02-23T03:01:26.370Z,16.33
2023-02-23T03:04:12.088Z,16.40
2023-02-23T03:07:04.180Z,17.47
2023-02-23T03:10:00.363Z,16.10
2023-02-23T03:12:55.465Z,17.47
2023-02-23T03:15:54.157Z,16.37
2023-02-23T03:18:56.018Z,17.80
2023-02-23T03:21:46.876Z,18.30
2023-02-23T03:24:40.703Z,17.50
2023-02-23T03:27:36.182Z,18.70
2023-02-23T03:30:30.287Z,18.70
2023-02-23T03:33:23.343Z,31.00
2023-02-23T03:36:16.015Z,26.57
2023-02-23T03:39:06.173Z,26.07
2023-02-23T03:41:54.561Z,23.80
2023-02-23T03:44:48.261Z,24.30
2023-02-23T03:47:35.658Z,29.67
2023-02-23T03:50:25.372Z,29.30
2023-02-23T03:53:15.217Z,26.87
2023-02-23T03:56:06.664Z,20.60
2023-02-23T03:58:57.695Z,22.50
2023-02-23T04:01:46.050Z,19.83
2023-02-23T04:04:31.195Z,19.93
2023-02-23T04:07:21.212Z,23.37
2023-02-23T04:10:07.294Z,28.67
2023-02-23T04:12:59.785Z,27.97
2023-02-23T04:15:30.082Z,24.77
2023-02-23T04:17:59.426Z,23.57
2023-02-23T04:20:29.616Z,29.30
2023-02-23T04:22:57.379Z,29.90
2023-02-23T04:25:25.134Z,29.20
2023-02-23T04:27:52.879Z,33.83
2023-02-23T04:30:25.104Z,21.57
2023-02-23T04:32:52.934Z,20.17
2023-02-23T04:35:22.180Z,19.50
2023-02-23T04:37:49.908Z,19.40
2023-02-23T04:40:17.813Z,20.87
2023-02-23T04:42:45.616Z,20.20
2023-02-23T04:45:13.393Z,19.23
2023-02-23T04:47:41.439Z,20.83
2023-02-23T04:50:10.612Z,20.27
2023-02-23T04:52:39.930Z,20.93
2023-02-23T04:55:08.884Z,28.97
2023-02-23T04:57:36.863Z,31.50
2023-02-23T05:00:05.803Z,29.60
2023-02-23T05:02:33.508Z,30.47
2023-02-23T05:05:01.211Z,31.00
2023-02-23T05:07:28.926Z,29.87
2023-02-23T05:09:57.978Z,32.73
2023-02-23T05:12:25.833Z,29.47
2023-02-23T05:14:53.552Z,28.80
2023-02-23T05:17:21.256Z,30.23
2023-02-23T05:19:48.981Z,28.73
2023-02-23T05:22:16.840Z,28.47
2023-02-23T05:24:44.649Z,28.73
2023-02-23T05:27:14.103Z,32.03
2023-02-23T05:29:41.919Z,38.30
2023-02-23T05:32:09.729Z,35.87
2023-02-23T05:34:39.070Z,41.53
2023-02-23T05:37:07.228Z,32.10
2023-02-23T05:39:34.911Z,32.50
2023-02-23T05:42:02.637Z,30.27
2023-02-23T05:44:31.767Z,31.35
2023-02-23T05:46:59.598Z,27.00
2023-02-23T05:49:27.322Z,26.93
2023-02-23T05:51:55.010Z,26.37
2023-02-23T05:54:22.743Z,25.90
2023-02-23T05:56:50.923Z,37.90
2023-02-23T05:59:18.641Z,39.30
2023-02-23T06:01:47.664Z,38.87
2023-02-23T06:04:15.543Z,41.77
2023-02-23T06:06:43.283Z,41.70
2023-02-23T06:09:10.971Z,39.60
2023-02-23T06:11:38.679Z,35.93
2023-02-23T06:14:06.424Z,32.10
2023-02-23T06:16:34.257Z,32.80
2023-02-23T06:19:03.399Z,29.23
2023-02-23T06:21:31.324Z,30.40
2023-02-23T06:24:00.637Z,27.30
2023-02-23T06:26:28.484Z,29.33
2023-02-23T06:28:56.782Z,29.03
2023-02-23T06:31:24.624Z,28.63
2023-02-23T06:33:52.356Z,28.43
2023-02-23T06:36:21.779Z,26.40
2023-02-23T06:38:49.544Z,29.10
2023-02-23T06:41:17.964Z,30.50
2023-02-23T06:43:45.887Z,27.77
2023-02-23T06:46:13.637Z,28.53
2023-02-23T06:48:41.595Z,32.27
2023-02-23T06:51:09.739Z,29.90
2023-02-23T06:53:38.816Z,30.90
2023-02-23T06:56:07.109Z,35.77
2023-02-23T06:58:34.817Z,32.40
2023-02-23T07:01:02.836Z,33.20
2023-02-23T07:03:30.549Z,33.47
2023-02-23T07:05:58.353Z,31.10
2023-02-23T07:08:26.086Z,31.20
2023-02-23T07:10:56.624Z,31.73
2023-02-23T07:13:24.360Z,28.47
2023-02-23T07:15:52.098Z,31.67
2023-02-23T07:18:19.805Z,28.90
2023-02-23T07:20:47.464Z,28.00
2023-02-23T07:23:15.141Z,26.27
2023-02-23T07:25:42.882Z,28.60
2023-02-23T07:28:14.041Z,30.97
2023-02-23T07:30:42.019Z,32.23
2023-02-23T07:33:09.784Z,32.47
2023-02-23T07:35:37.548Z,32.70
2023-02-23T07:38:05.544Z,33.90
2023-02-23T07:40:33.261Z,31.70
2023-02-23T07:43:00.989Z,32.43
2023-02-23T07:45:30.107Z,34.42
2023-02-23T07:47:57.787Z,36.90
2023-02-23T07:50:25.498Z,31.47
2023-02-23T07:52:53.681Z,34.33
2023-02-23T07:55:22.446Z,32.83
2023-02-23T07:57:50.169Z,33.07
2023-02-23T08:00:18.736Z,31.67
2023-02-23T08:02:47.832Z,35.20
2023-02-23T08:05:15.633Z,32.53
2023-02-23T08:07:43.331Z,35.27
2023-02-23T08:10:12.524Z,35.87
2023-02-23T08:12:40.405Z,34.53
2023-02-23T08:15:09.167Z,35.13
2023-02-23T08:17:37.616Z,36.40
2023-02-23T08:20:08.723Z,34.67
2023-02-23T08:22:48.503Z,33.20
2023-02-23T08:25:16.505Z,33.70
2023-02-23T08:27:44.245Z,35.57
2023-02-23T08:30:14.167Z,37.93
2023-02-23T08:32:42.226Z,33.47
2023-02-23T08:35:12.742Z,35.23
2023-02-23T08:37:41.824Z,38.83
2023-02-23T08:40:12.145Z,37.90
2023-02-23T08:42:39.902Z,37.37
2023-02-23T08:45:08.868Z,40.37
2023-02-23T08:47:36.795Z,40.03
2023-02-23T08:50:06.150Z,37.73
2023-02-23T08:52:35.176Z,39.70
2023-02-23T08:55:03.133Z,38.97
2023-02-23T08:57:33.351Z,38.63
2023-02-23T09:00:01.660Z,41.90
2023-02-23T09:02:29.498Z,38.03
2023-02-23T09:04:57.704Z,41.77
2023-02-23T09:07:25.681Z,40.20
2023-02-23T09:09:57.657Z,43.07
2023-02-23T09:12:25.598Z,38.40
2023-02-23T09:14:53.773Z,40.30
2023-02-23T09:17:22.969Z,42.17
2023-02-23T09:19:51.037Z,39.27
2023-02-23T09:22:19.718Z,38.23
2023-02-23T09:24:47.501Z,41.10
2023-02-23T09:27:16.621Z,40.97
2023-02-23T09:29:44.494Z,43.77
2023-02-23T09:32:13.126Z,37.90
2023-02-23T09:34:41.105Z,40.60
2023-02-23T09:37:08.813Z,39.47
2023-02-23T09:39:38.921Z,37.53
2023-02-23T09:42:21.437Z,38.93
2023-02-23T09:45:02.971Z,39.00
2023-02-23T09:47:41.562Z,36.93
2023-02-23T09:50:18.298Z,43.90
2023-02-23T09:52:50.462Z,40.10
2023-02-23T09:55:18.643Z,40.17
2023-02-23T09:57:49.370Z,38.93
2023-02-23T10:00:25.336Z,37.27
2023-02-23T10:03:12.397Z,35.37
2023-02-23T10:05:44.715Z,35.33
2023-02-23T10:08:26.166Z,34.60
2023-02-23T10:11:03.516Z,32.90
2023-02-23T10:13:43.741Z,34.87
2023-02-23T10:16:18.260Z,32.53
2023-02-23T10:18:53.434Z,35.33
2023-02-23T10:21:32.113Z,34.70
2023-02-23T10:24:03.631Z,34.00
2023-02-23T10:26:38.396Z,34.57
2023-02-23T10:29:21.711Z,32.90
2023-02-23T10:31:53.227Z,33.37
2023-02-23T10:34:23.547Z,34.43
2023-02-23T10:36:56.849Z,33.97
2023-02-23T10:39:24.665Z,33.60
2023-02-23T10:41:53.594Z,37.03
2023-02-23T10:44:25.490Z,31.80
2023-02-23T10:46:57.600Z,32.83
2023-02-23T10:49:31.566Z,33.97
2023-02-23T10:52:02.903Z,32.27
2023-02-23T10:54:39.421Z,33.20
2023-02-23T10:57:08.933Z,34.17
2023-02-23T10:59:38.109Z,33.40
2023-02-23T11:02:24.451Z,35.20
2023-02-23T11:04:54.541Z,29.63
2023-02-23T11:07:25.463Z,30.07
2023-02-23T11:09:53.273Z,29.50
2023-02-23T11:12:24.070Z,28.77
2023-02-23T11:14:54.805Z,29.80
2023-02-23T11:17:32.378Z,30.17
2023-02-23T11:20:07.663Z,28.47
2023-02-23T11:22:38.094Z,28.37
2023-02-23T11:25:18.500Z,28.63
2023-02-23T11:27:51.422Z,27.90
2023-02-23T11:30:24.438Z,29.33
2023-02-23T11:32:54.186Z,27.33
2023-02-23T11:35:32.566Z,25.50
2023-02-23T11:38:00.343Z,25.80
2023-02-23T11:40:29.920Z,27.37
2023-02-23T11:42:59.223Z,24.93
2023-02-23T11:45:33.599Z,25.57
2023-02-23T11:48:06.682Z,26.77
2023-02-23T11:50:36.381Z,25.70
2023-02-23T11:53:06.476Z,25.10
2023-02-23T11:55:37.643Z,24.83
2023-02-23T11:58:10.656Z,22.40
2023-02-23T12:00:40.173Z,26.87
2023-02-23T12:03:08.428Z,26.63
2023-02-23T12:05:36.353Z,27.17
2023-02-23T12:08:07.723Z,25.17
2023-02-23T12:10:40.110Z,23.77
2023-02-23T12:13:19.025Z,25.50
2023-02-23T12:15:52.308Z,28.23
2023-02-23T12:18:33.133Z,25.83
2023-02-23T12:21:11.041Z,28.83
2023-02-23T12:23:43.475Z,26.27
2023-02-23T12:26:17.681Z,26.47
2023-02-23T12:28:53.743Z,28.00
2023-02-23T12:31:29.947Z,27.70
2023-02-23T12:34:02.094Z,25.73
2023-02-23T12:36:38.443Z,27.53
2023-02-23T12:39:17.733Z,27.07
2023-02-23T12:41:49.831Z,27.63
2023-02-23T12:44:31.212Z,27.50
2023-02-23T12:47:07.952Z,31.57
2023-02-23T12:49:40.359Z,28.70
2023-02-23T12:52:15.196Z,29.03
2023-02-23T12:54:43.627Z,32.90
2023-02-23T12:57:23.653Z,31.87
2023-02-23T13:00:20.378Z,27.43
2023-02-23T13:02:53.684Z,32.27
2023-02-23T13:05:28.434Z,30.47
2023-02-23T13:08:12.970Z,31.13
2023-02-23T13:10:51.626Z,29.70
2023-02-23T13:13:30.059Z,28.97
2023-02-23T13:16:04.348Z,28.23
2023-02-23T13:18:39.628Z,30.07
2023-02-23T13:21:14.765Z,27.93
2023-02-23T13:23:53.659Z,28.30
2023-02-23T13:26:31.567Z,28.80
2023-02-23T13:29:04.173Z,24.80
2023-02-23T13:31:34.941Z,24.57
2023-02-23T13:34:10.313Z,24.47
2023-02-23T13:36:41.105Z,25.60
2023-02-23T13:39:35.671Z,26.03
2023-02-23T13:42:16.056Z,24.57
2023-02-23T13:44:50.572Z,24.17
2023-02-23T13:47:35.302Z,23.97
2023-02-23T13:50:14.030Z,23.80
2023-02-23T13:52:43.533Z,22.10
2023-02-23T13:55:48.637Z,23.47
2023-02-23T13:58:19.889Z,23.53
2023-02-23T14:00:55.751Z,23.60
2023-02-23T14:03:27.805Z,22.80
2023-02-23T14:06:01.010Z,23.00
2023-02-23T14:08:34.625Z,23.53
2023-02-23T14:11:03.068Z,21.97
2023-02-23T14:13:32.894Z,22.23
2023-02-23T14:16:18.922Z,23.10
2023-02-23T14:19:06.238Z,22.73
2023-02-23T14:21:38.656Z,21.50
2023-02-23T14:24:17.475Z,22.73
2023-02-23T14:27:08.312Z,23.37
2023-02-23T14:29:41.570Z,21.77
2023-02-23T14:32:29.736Z,20.83
2023-02-23T14:34:59.411Z,21.37
2023-02-23T14:37:33.339Z,21.50
2023-02-23T14:40:14.322Z,21.13
2023-02-23T14:42:47.113Z,22.13
2023-02-23T14:45:20.462Z,21.90
2023-02-23T14:47:51.979Z,22.38
2023-02-23T14:50:27.181Z,24.23
2023-02-23T14:52:57.011Z,22.40
2023-02-23T14:55:29.074Z,23.43
2023-02-23T14:57:58.070Z,26.50
2023-02-23T15:00:28.370Z,24.80
2023-02-23T15:03:01.533Z,21.67
2023-02-23T15:05:31.421Z,23.40
2023-02-23T15:08:03.850Z,25.20
2023-02-23T15:10:34.577Z,24.50
2023-02-23T15:13:10.158Z,22.10
2023-02-23T15:15:45.247Z,22.27
2023-02-23T15:19:08.338Z,21.00
2023-02-23T15:21:39.593Z,19.80
2023-02-23T15:24:16.464Z,20.50
2023-02-23T15:26:44.324Z,21.03
2023-02-23T15:29:16.730Z,20.20
2023-02-23T15:31:51.121Z,21.00
2023-02-23T15:34:20.874Z,20.60
2023-02-23T15:36:53.257Z,19.23
2023-02-23T15:39:35.465Z,21.00
2023-02-23T15:42:04.848Z,18.50
2023-02-23T15:44:43.801Z,19.70
2023-02-23T15:47:19.975Z,18.07
2023-02-23T15:49:48.242Z,17.53
2023-02-23T15:52:19.008Z,18.60
2023-02-23T15:54:52.492Z,18.27
2023-02-23T15:57:23.920Z,17.10
2023-02-23T15:59:54.460Z,18.07
2023-02-23T16:02:25.905Z,17.43
2023-02-23T16:04:54.062Z,17.37
2023-02-23T16:07:24.734Z,17.10
2023-02-23T16:09:55.911Z,17.03
2023-02-23T16:12:29.040Z,17.40
2023-02-23T16:14:59.342Z,16.13
2023-02-23T16:17:31.039Z,17.60
2023-02-23T16:20:09.673Z,15.47
2023-02-23T16:22:39.752Z,13.60
2023-02-23T16:25:14.944Z,14.60
2023-02-23T16:27:44.213Z,16.17
2023-02-23T16:30:23.507Z,16.37
2023-02-23T16:33:05.819Z,16.40
2023-02-23T16:35:38.148Z,17.23
2023-02-23T16:38:13.625Z,16.20
2023-02-23T16:40:43.436Z,17.33
2023-02-23T16:43:11.762Z,18.50
2023-02-23T16:45:45.046Z,16.60
2023-02-23T16:48:17.533Z,17.90
2023-02-23T16:50:47.694Z,18.40
2023-02-23T16:53:16.847Z,16.00
2023-02-23T16:55:50.245Z,16.97
2023-02-23T16:58:20.704Z,14.80
2023-02-23T17:00:48.869Z,14.60
2023-02-23T17:03:21.195Z,15.00
2023-02-23T17:05:49.108Z,15.57
2023-02-23T17:08:16.889Z,15.00
2023-02-23T17:10:48.324Z,13.80
2023-02-23T17:13:19.740Z,15.00
2023-02-23T17:15:50.528Z,15.60
2023-02-23T17:18:19.124Z,17.43
2023-02-23T17:20:47.000Z,16.10
2023-02-23T17:23:14.723Z,13.90
2023-02-23T17:25:42.891Z,16.00
2023-02-23T17:28:12.103Z,13.93
2023-02-23T17:30:42.562Z,15.40
2023-02-23T17:33:11.446Z,15.93
2023-02-23T17:35:39.401Z,13.80
2023-02-23T17:38:07.829Z,14.90
2023-02-23T17:40:37.853Z,15.70
2023-02-23T17:43:08.274Z,16.13
2023-02-23T17:45:37.506Z,15.20
2023-02-23T17:48:05.489Z,14.60
2023-02-23T17:50:33.235Z,14.67
2023-02-23T17:53:00.962Z,15.33
2023-02-23T17:55:28.704Z,15.70
2023-02-23T17:57:56.399Z,13.57
2023-02-23T18:00:24.976Z,15.60
2023-02-23T18:02:54.065Z,14.87
2023-02-23T18:05:22.032Z,14.60
2023-02-23T18:07:49.786Z,14.93
2023-02-23T18:10:17.970Z,14.33
2023-02-23T18:12:46.121Z,14.30
2023-02-23T18:15:13.882Z,12.70
2023-02-23T18:17:41.794Z,13.23
2023-02-23T18:20:16.137Z,13.77
2023-02-23T18:22:44.502Z,13.70
2023-02-23T18:25:21.576Z,13.20
2023-02-23T18:27:53.793Z,13.60
2023-02-23T18:30:22.486Z,11.47
2023-02-23T18:32:50.511Z,12.90
2023-02-23T18:35:19.724Z,13.97
2023-02-23T18:37:47.779Z,13.80
2023-02-23T18:40:21.258Z,12.10
2023-02-23T18:42:49.221Z,13.13
2023-02-23T18:45:17.681Z,14.70
2023-02-23T18:47:45.420Z,11.40
2023-02-23T18:50:18.902Z,11.07
2023-02-23T18:52:48.810Z,12.17
2023-02-23T18:55:16.602Z,12.80
2023-02-23T18:57:44.708Z,11.67
2023-02-23T19:00:15.242Z,11.80
2023-02-23T19:02:43.441Z,12.03
2023-02-23T19:05:13.711Z,10.97
2023-02-23T19:07:42.698Z,11.27
2023-02-23T19:10:16.118Z,11.10
2023-02-23T19:12:44.973Z,11.97
2023-02-23T19:15:13.483Z,11.43
2023-02-23T19:17:41.451Z,12.43
2023-02-23T19:20:13.561Z,12.97
2023-02-23T19:22:42.666Z,13.03
2023-02-23T19:25:14.159Z,14.20
2023-02-23T19:27:43.499Z,13.00
2023-02-23T19:30:14.222Z,12.80
2023-02-23T19:32:42.328Z,12.13
2023-02-23T19:35:14.689Z,12.27
2023-02-23T19:37:48.130Z,12.20
2023-02-23T19:40:21.814Z,11.47
2023-02-23T19:42:50.233Z,11.80
2023-02-23T19:45:18.788Z,13.20
2023-02-23T19:47:46.506Z,12.23
2023-02-23T19:50:17.158Z,11.53
2023-02-23T19:52:45.778Z,11.83
2023-02-23T19:55:13.709Z,12.93
2023-02-23T19:57:43.147Z,13.00
2023-02-23T20:00:12.598Z,12.50
2023-02-23T20:02:43.384Z,12.93
2023-02-23T20:05:12.251Z,11.77
2023-02-23T20:07:40.245Z,12.77
2023-02-23T20:10:10.108Z,12.00
2023-02-23T20:12:37.850Z,12.73
2023-02-23T20:15:08.436Z,10.97
2023-02-23T20:17:36.745Z,13.50
2023-02-23T20:20:06.927Z,11.10
2023-02-23T20:22:36.260Z,13.13
2023-02-23T20:25:05.901Z,13.73
2023-02-23T20:27:33.918Z,10.00
2023-02-23T20:30:02.156Z,10.80
2023-02-23T20:32:31.287Z,13.07
2023-02-23T20:35:00.693Z,12.63
2023-02-23T20:37:28.414Z,14.13
2023-02-23T20:39:56.101Z,16.40
2023-02-23T20:42:24.618Z,13.77
2023-02-23T20:44:53.091Z,15.53
2023-02-23T20:47:20.770Z,14.30
2023-02-23T20:49:49.829Z,15.30
2023-02-23T20:52:17.545Z,14.17
2023-02-23T20:54:45.251Z,14.13
2023-02-23T20:57:12.979Z,14.90
2023-02-23T20:59:42.961Z,13.93
2023-02-23T21:02:13.934Z,14.90
2023-02-23T21:04:44.194Z,19.13
2023-02-23T21:07:14.015Z,18.13
2023-02-23T21:09:42.379Z,18.20
2023-02-23T21:12:10.958Z,16.97
2023-02-23T21:14:38.679Z,18.60
2023-02-23T21:17:09.623Z,17.30
2023-02-23T21:19:38.804Z,17.67
2023-02-23T21:22:17.130Z,19.63
2023-02-23T21:24:45.136Z,19.10
2023-02-23T21:27:13.545Z,18.17
2023-02-23T21:29:41.786Z,19.17
2023-02-23T21:32:13.845Z,18.40
2023-02-23T21:34:41.941Z,16.30
2023-02-23T21:37:09.817Z,17.07
2023-02-23T21:39:40.738Z,18.53
2023-02-23T21:42:08.720Z,19.00
2023-02-23T21:44:36.450Z,18.73
2023-02-23T21:47:07.135Z,18.23
2023-02-23T21:49:34.839Z,19.50
2023-02-23T21:52:02.626Z,18.57
2023-02-23T21:54:30.352Z,17.50
2023-02-23T21:56:59.709Z,17.93
2023-02-23T21:59:27.387Z,15.93
2023-02-23T22:01:55.271Z,15.93
2023-02-23T22:04:25.766Z,14.90
2023-02-23T22:06:53.565Z,16.40
2023-02-23T22:09:21.307Z,16.70
2023-02-23T22:11:49.304Z,13.83
2023-02-23T22:14:18.668Z,11.30
2023-02-23T22:16:47.524Z,7.50
2023-02-23T22:19:15.424Z,6.10
2023-02-23T22:21:45.192Z,4.83
2023-02-23T22:24:14.110Z,4.63
2023-02-23T22:26:46.687Z,4.77
2023-02-23T22:29:14.481Z,4.97
2023-02-23T22:31:43.849Z,5.23
2023-02-23T22:34:11.710Z,4.50
2023-02-23T22:36:39.701Z,5.00
2023-02-23T22:39:09.544Z,5.53
2023-02-23T22:41:42.207Z,4.60
2023-02-23T22:44:12.173Z,4.93
2023-02-23T22:46:40.729Z,6.40
2023-02-23T22:49:11.713Z,4.80
2023-02-23T22:51:39.983Z,4.93
2023-02-23T22:54:07.989Z,4.93
2023-02-23T22:56:36.825Z,5.10
2023-02-23T22:59:06.327Z,4.70
2023-02-23T23:01:34.798Z,6.43
2023-02-23T23:04:09.942Z,4.80
2023-02-23T23:06:40.440Z,5.68
2023-02-23T23:09:11.627Z,4.63
2023-02-23T23:11:41.671Z,5.23
2023-02-23T23:14:11.121Z,5.83
2023-02-23T23:16:47.581Z,5.87
2023-02-23T23:19:17.450Z,7.83
2023-02-23T23:21:46.880Z,6.37
2023-02-23T23:24:15.384Z,6.00
2023-02-23T23:26:44.220Z,6.27
2023-02-23T23:29:14.289Z,5.97
2023-02-23T23:31:45.525Z,4.77
2023-02-23T23:34:16.422Z,4.80
2023-02-23T23:36:49.210Z,6.20
2023-02-23T23:39:18.758Z,5.53
2023-02-23T23:41:48.077Z,4.40
2023-02-23T23:44:17.050Z,5.60
2023-02-23T23:46:46.644Z,3.43
2023-02-23T23:49:16.751Z,4.30
2023-02-23T23:51:48.645Z,4.90
2023-02-23T23:54:18.778Z,7.30
2023-02-23T23:56:46.615Z,3.87
2023-02-23T23:59:16.521Z,4.00
